Time;durP1;ratioP1;P1;durP2;ratioP2;P2;SDS_P1;SDS_P2;PMS_P1;PMS_P2;Temp;Humidity;BMP_temperature;BMP_pressure;BME280_temperature;BME280_humidity;BME280_pressure;Samples;Min_cycle;Max_cycle;Signal;HPM_P1;HPM_P2
2023/04/06 00:01:36;;;;;;;49.40;19.60;;;;;;;1.89;100.00;101778.06;5180727;28;20033;-73
2023/04/06 00:04:07;;;;;;;54.78;20.98;;;;;;;1.90;100.00;101777.13;5181651;28;20030;-74
2023/04/06 00:06:37;;;;;;;52.53;20.90;;;;;;;1.90;100.00;101779.78;5182127;28;20030;-74
2023/04/06 00:09:08;;;;;;;49.00;20.40;;;;;;;1.87;100.00;101769.38;5182291;28;20025;-74
2023/04/06 00:11:38;;;;;;;55.25;22.45;;;;;;;1.85;100.00;101773.03;5182087;28;20562;-74
2023/04/06 00:14:09;;;;;;;50.30;20.45;;;;;;;1.85;100.00;101760.66;5183800;28;20080;-74
2023/04/06 00:16:40;;;;;;;42.45;19.17;;;;;;;1.82;100.00;101758.22;5185567;28;20045;-74
2023/04/06 00:19:10;;;;;;;49.13;22.75;;;;;;;1.79;100.00;101764.50;5186130;28;20061;-74
2023/04/06 00:21:41;;;;;;;51.08;20.52;;;;;;;1.78;100.00;101762.81;5184544;28;20418;-74
2023/04/06 00:24:11;;;;;;;52.95;20.77;;;;;;;1.76;100.00;101756.78;5185535;28;20057;-74
2023/04/06 00:26:42;;;;;;;46.60;20.40;;;;;;;1.75;100.00;101752.41;5185319;28;20133;-74
2023/04/06 00:29:12;;;;;;;51.72;20.70;;;;;;;1.75;100.00;101749.75;5183768;28;20475;-74
2023/04/06 00:31:43;;;;;;;51.65;20.80;;;;;;;1.76;100.00;101756.78;5217083;28;20026;-73
2023/04/06 00:34:15;;;;;;;50.78;20.80;;;;;;;1.75;100.00;101749.75;5185415;28;20018;-74
2023/04/06 00:36:46;;;;;;;44.83;19.58;;;;;;;1.74;100.00;101749.84;5179550;28;20022;-72
2023/04/06 00:39:16;;;;;;;50.00;19.70;;;;;;;1.71;100.00;101745.59;5217182;28;20029;-72
2023/04/06 00:41:51;;;;;;;51.00;19.98;;;;;;;1.71;100.00;101745.59;5184622;28;20034;-73
2023/04/06 00:44:22;;;;;;;53.95;22.05;;;;;;;1.72;100.00;101752.59;5185195;28;20053;-72
2023/04/06 00:46:52;;;;;;;46.95;20.63;;;;;;;1.71;100.00;101728.88;5184924;28;20033;-72
2023/04/06 00:49:23;;;;;;;44.78;19.38;;;;;;;1.73;100.00;101735.78;5185204;28;20482;-72
2023/04/06 00:51:53;;;;;;;54.63;21.08;;;;;;;1.75;100.00;101735.69;5184202;28;20057;-72
2023/04/06 00:54:24;;;;;;;46.08;19.88;;;;;;;1.76;100.00;101732.13;5184723;28;20026;-73
2023/04/06 00:56:55;;;;;;;54.08;21.42;;;;;;;1.78;100.00;101733.72;5184659;28;20172;-73
2023/04/06 00:59:28;;;;;;;54.60;22.02;;;;;;;1.80;100.00;101723.88;5184952;28;20545;-72
2023/04/06 01:01:59;;;;;;;45.58;20.55;;;;;;;1.84;100.00;101731.66;5185174;28;20466;-73
2023/04/06 01:04:30;;;;;;;42.70;18.67;;;;;;;1.85;100.00;101726.25;5185076;28;20049;-73
2023/04/06 01:07:01;;;;;;;45.45;19.23;;;;;;;1.88;100.00;101718.16;5184262;28;20156;-73
2023/04/06 01:09:31;;;;;;;42.13;18.55;;;;;;;1.90;100.00;101720.72;5184483;28;20383;-72
2023/04/06 01:12:03;;;;;;;53.90;20.63;;;;;;;1.91;100.00;101715.34;5185275;28;20120;-74
2023/04/06 01:14:33;;;;;;;51.40;20.13;;;;;;;1.92;100.00;101710.91;5184572;28;20394;-72
2023/04/06 01:17:04;;;;;;;44.72;19.25;;;;;;;1.94;100.00;101704.56;5184477;28;20021;-72
2023/04/06 01:19:36;;;;;;;39.53;16.55;;;;;;;1.98;100.00;101702.59;5183880;28;20091;-72
2023/04/06 01:22:07;;;;;;;42.85;18.58;;;;;;;1.99;100.00;101697.22;5184420;28;20438;-72
2023/04/06 01:24:38;;;;;;;43.88;19.42;;;;;;;2.00;100.00;101703.34;5184488;28;20026;-73
2023/04/06 01:27:08;;;;;;;43.15;19.60;;;;;;;2.02;100.00;101701.50;5183517;28;20406;-72
2023/04/06 01:29:41;;;;;;;46.65;18.90;;;;;;;2.03;100.00;101695.25;5183903;28;20030;-73
2023/04/06 01:32:11;;;;;;;44.28;18.38;;;;;;;2.02;100.00;101699.69;5184541;28;20497;-73
2023/04/06 01:34:42;;;;;;;45.15;19.08;;;;;;;2.04;100.00;101696.94;5184567;28;20037;-73
2023/04/06 01:37:12;;;;;;;41.42;17.60;;;;;;;2.08;100.00;101690.53;5184047;28;20025;-73
2023/04/06 01:39:43;;;;;;;48.58;18.23;;;;;;;2.13;100.00;101692.91;5184204;28;20112;-73
2023/04/06 01:42:14;;;;;;;47.60;18.77;;;;;;;2.17;100.00;101683.84;5183676;28;20511;-72
2023/04/06 01:44:44;;;;;;;41.92;18.75;;;;;;;2.19;100.00;101687.25;5184164;28;20022;-72
2023/04/06 01:47:15;;;;;;;50.22;19.45;;;;;;;2.21;100.00;101688.88;5183813;28;20026;-73
2023/04/06 01:49:46;;;;;;;45.10;18.77;;;;;;;2.23;100.00;101683.47;5183888;28;20037;-73
2023/04/06 01:52:16;;;;;;;43.72;18.67;;;;;;;2.21;100.00;101678.28;5216165;28;20022;-73
2023/04/06 01:54:47;;;;;;;46.72;17.67;;;;;;;2.22;100.00;101671.19;5183434;28;20049;-73
2023/04/06 01:57:17;;;;;;;40.95;18.00;;;;;;;2.22;100.00;101679.13;5183476;28;20101;-73
2023/04/06 01:59:48;;;;;;;42.40;16.85;;;;;;;2.22;100.00;101681.78;5184025;28;20033;-73
2023/04/06 02:02:19;;;;;;;39.47;18.20;;;;;;;2.22;100.00;101669.38;5183865;28;20029;-73
2023/04/06 02:04:50;;;;;;;47.67;19.52;;;;;;;2.23;100.00;101668.44;5183795;28;20398;-72
2023/04/06 02:07:20;;;;;;;43.80;17.65;;;;;;;2.25;100.00;101663.03;5182835;28;20025;-73
2023/04/06 02:09:55;;;;;;;40.20;17.70;;;;;;;2.31;100.00;101665.34;5214946;28;20486;-73
2023/04/06 02:12:45;;;;;;;42.63;18.70;;;;;;;2.36;100.00;101657.09;5169037;28;20168;-72
2023/04/06 02:15:19;;;;;;;41.28;18.58;;;;;;;2.41;100.00;101653.25;5183601;28;20468;-73
2023/04/06 02:17:51;;;;;;;42.40;15.45;;;;;;;2.43;100.00;101653.97;5182721;28;20042;-73
2023/04/06 02:20:22;;;;;;;36.22;14.98;;;;;;;2.45;100.00;101651.22;5183775;28;20391;-72
2023/04/06 02:22:52;;;;;;;36.03;15.85;;;;;;;2.46;100.00;101644.97;5183322;28;20072;-72
2023/04/06 02:25:23;;;;;;;41.15;17.30;;;;;;;2.47;100.00;101646.72;5183121;28;20780;-73
2023/04/06 02:27:54;;;;;;;39.60;17.20;;;;;;;2.50;100.00;101647.34;5181688;28;20053;-73
2023/04/06 02:30:32;;;;;;;40.30;15.65;;;;;;;2.53;100.00;101646.31;5183039;28;20664;-73
2023/04/06 02:33:03;;;;;;;41.80;16.38;;;;;;;2.55;100.00;101649.72;5183367;28;20448;-73
2023/04/06 02:35:33;;;;;;;39.45;16.13;;;;;;;2.56;100.00;101644.34;5181937;28;20097;-73
2023/04/06 02:38:04;;;;;;;38.40;15.98;;;;;;;2.56;100.00;101639.03;5181863;28;20026;-73
2023/04/06 02:40:34;;;;;;;34.33;14.50;;;;;;;2.57;100.00;101634.59;5182092;28;20064;-73
2023/04/06 02:43:05;;;;;;;36.38;15.63;;;;;;;2.56;100.00;101635.50;5183065;28;20026;-73
2023/04/06 02:45:35;;;;;;;42.72;15.95;;;;;;;2.56;100.00;101631.09;5182766;28;20022;-73
2023/04/06 02:48:06;;;;;;;32.20;14.05;;;;;;;2.57;100.00;101634.59;5182494;28;20398;-73
2023/04/06 02:50:36;;;;;;;35.80;15.85;;;;;;;2.57;100.00;101635.44;5182934;28;20025;-73
2023/04/06 02:53:07;;;;;;;39.90;17.08;;;;;;;2.57;100.00;101634.59;5182371;28;20399;-73
2023/04/06 02:55:37;;;;;;;43.15;18.25;;;;;;;2.56;100.00;101638.16;5182989;28;20072;-73
2023/04/06 02:58:08;;;;;;;41.05;15.55;;;;;;;2.54;100.00;101626.81;5182106;28;20037;-73
2023/04/06 03:00:38;;;;;;;34.67;15.40;;;;;;;2.54;100.00;101621.53;5182633;28;20026;-73
2023/04/06 03:03:09;;;;;;;38.13;15.95;;;;;;;2.53;100.00;101619.84;5182655;28;20343;-73
2023/04/06 03:05:40;;;;;;;38.78;16.27;;;;;;;2.52;100.00;101628.72;5182343;28;20030;-72
2023/04/06 03:08:10;;;;;;;39.13;16.10;;;;;;;2.52;100.00;101612.84;5182261;28;20105;-73
2023/04/06 03:10:41;;;;;;;52.33;16.45;;;;;;;2.51;100.00;101613.75;5182492;28;20033;-72
2023/04/06 03:13:11;;;;;;;35.17;14.75;;;;;;;2.53;100.00;101612.72;5177360;28;20034;-73
2023/04/06 03:15:42;;;;;;;36.00;15.90;;;;;;;2.53;100.00;101611.88;5176153;28;20029;-73
2023/04/06 03:18:12;;;;;;;37.60;16.50;;;;;;;2.54;100.00;101609.13;5182529;28;20033;-73
2023/04/06 03:20:43;;;;;;;34.42;15.15;;;;;;;2.55;100.00;101608.19;5182165;28;20071;-73
2023/04/06 03:23:13;;;;;;;38.15;15.27;;;;;;;2.57;100.00;101602.81;5182743;28;20053;-72
2023/04/06 03:25:44;;;;;;;39.17;15.85;;;;;;;2.59;100.00;101604.41;5182034;28;20026;-73
2023/04/06 03:28:15;;;;;;;35.28;14.65;;;;;;;2.61;100.00;101604.31;5184350;28;20033;-73
2023/04/06 03:30:46;;;;;;;36.60;14.93;;;;;;;2.63;100.00;101597.13;5182495;28;20152;-73
2023/04/06 03:33:16;;;;;;;35.35;14.75;;;;;;;2.65;100.00;101595.22;5214826;28;20108;-73
2023/04/06 03:35:47;;;;;;;37.28;14.27;;;;;;;2.65;100.00;101597.84;5183157;28;20087;-73
2023/04/06 03:38:17;;;;;;;29.08;13.63;;;;;;;2.67;100.00;101592.47;5182567;28;20033;-72
2023/04/06 03:40:48;;;;;;;35.42;15.10;;;;;;;2.67;100.00;101598.63;5185132;28;20052;-73
2023/04/06 03:43:19;;;;;;;33.58;15.52;;;;;;;2.69;100.00;101596.72;5182649;28;20037;-73
2023/04/06 03:45:49;;;;;;;36.40;14.80;;;;;;;2.72;100.00;101590.41;5182877;28;20053;-72
2023/04/06 03:48:20;;;;;;;36.65;14.93;;;;;;;2.74;100.00;101588.47;5181295;28;20056;-72
2023/04/06 03:50:50;;;;;;;31.73;14.18;;;;;;;2.77;100.00;101593.59;5218209;28;20030;-73
2023/04/06 03:53:21;;;;;;;27.55;12.90;;;;;;;2.77;100.00;101585.66;5186263;28;20048;-73
2023/04/06 03:55:51;;;;;;;38.25;14.32;;;;;;;2.78;100.00;101588.19;5186270;28;20548;-73
2023/04/06 03:58:22;;;;;;;35.05;14.20;;;;;;;2.80;100.00;101583.63;5185670;28;20030;-72
2023/04/06 04:00:52;;;;;;;35.15;14.55;;;;;;;2.80;100.00;101583.63;5186142;28;20075;-73
2023/04/06 04:03:26;;;;;;;32.08;13.38;;;;;;;2.82;100.00;101584.41;5186262;28;20025;-73
2023/04/06 04:05:57;;;;;;;24.70;13.27;;;;;;;2.84;100.00;101585.16;5185839;28;20029;-73
2023/04/06 04:08:27;;;;;;;32.63;15.00;;;;;;;2.84;100.00;101590.44;5185466;28;20595;-72
2023/04/06 04:10:58;;;;;;;35.95;15.30;;;;;;;2.85;100.00;101593.94;5185790;28;20033;-72
2023/04/06 04:13:28;;;;;;;32.33;13.93;;;;;;;2.87;100.00;101585.91;5185942;28;20026;-73
2023/04/06 04:15:59;;;;;;;35.30;14.70;;;;;;;2.88;100.00;101590.25;5185697;28;20022;-73
2023/04/06 04:18:30;;;;;;;38.25;15.23;;;;;;;2.89;100.00;101590.16;5185552;28;20033;-73
2023/04/06 04:21:00;;;;;;;31.48;14.82;;;;;;;2.92;100.00;101587.31;5185493;28;20026;-73
2023/04/06 04:23:31;;;;;;;34.35;14.32;;;;;;;2.95;100.00;101592.41;5185549;28;20033;-73
2023/04/06 04:26:02;;;;;;;33.40;14.50;;;;;;;2.96;100.00;101593.25;5185266;28;20541;-73
2023/04/06 04:28:32;;;;;;;29.52;12.85;;;;;;;2.99;100.00;101593.91;5216775;28;20604;-73
2023/04/06 04:31:03;;;;;;;43.22;17.38;;;;;;;3.01;100.00;101589.38;5185374;28;20057;-73
2023/04/06 04:33:33;;;;;;;30.02;13.68;;;;;;;3.04;100.00;101594.47;5185444;28;20049;-73
2023/04/06 04:36:04;;;;;;;35.20;14.43;;;;;;;3.08;100.00;101598.63;5184710;28;20022;-73
2023/04/06 04:38:35;;;;;;;36.17;14.85;;;;;;;3.12;100.00;101601.94;5184896;28;20029;-72
2023/04/06 04:41:05;;;;;;;33.58;13.45;;;;;;;3.17;100.00;101596.34;5185245;28;20030;-73
2023/04/06 04:43:36;;;;;;;36.33;15.02;;;;;;;3.19;100.00;101595.25;5184708;28;20029;-72
2023/04/06 04:46:06;;;;;;;33.92;14.05;;;;;;;3.25;100.00;101596.66;5185132;28;20021;-74
2023/04/06 04:48:37;;;;;;;31.98;13.65;;;;;;;3.29;100.00;101588.41;5184966;28;20026;-73
2023/04/06 04:51:07;;;;;;;38.08;14.10;;;;;;;3.31;100.00;101586.53;5185072;28;20044;-73
2023/04/06 04:53:38;;;;;;;36.05;13.57;;;;;;;3.33;100.00;101591.72;5184879;28;20084;-73
2023/04/06 04:56:08;;;;;;;31.73;14.57;;;;;;;3.33;100.00;101594.38;5184414;28;20034;-73
2023/04/06 04:58:39;;;;;;;30.08;13.60;;;;;;;3.31;100.00;101590.94;5184492;28;20414;-72
2023/04/06 05:01:09;;;;;;;36.92;14.75;;;;;;;3.31;100.00;101593.59;5183884;28;20036;-73
2023/04/06 05:03:41;;;;;;;32.97;13.73;;;;;;;3.32;100.00;101593.53;5184832;28;20108;-73
2023/04/06 05:06:12;;;;;;;32.53;13.57;;;;;;;3.36;100.00;101600.34;5184924;28;20119;-73
2023/04/06 05:08:42;;;;;;;31.65;13.68;;;;;;;3.42;100.00;101598.22;5182927;28;20026;-73
2023/04/06 05:11:13;;;;;;;30.13;13.45;;;;;;;3.45;100.00;101595.34;5183525;28;20029;-73
2023/04/06 05:13:43;;;;;;;29.98;13.52;;;;;;;3.51;100.00;101595.78;5184740;28;20506;-73
2023/04/06 05:16:14;;;;;;;31.38;13.02;;;;;;;3.56;100.00;101588.34;5184790;28;20113;-72
2023/04/06 05:18:45;;;;;;;32.00;13.00;;;;;;;3.57;100.00;101590.09;5184991;28;20437;-73
2023/04/06 05:21:15;;;;;;;28.90;13.45;;;;;;;3.57;100.00;101592.75;5183867;28;20029;-74
2023/04/06 05:23:46;;;;;;;27.67;12.10;;;;;;;3.58;100.00;101589.13;5184324;28;20364;-74
2023/04/06 05:26:16;;;;;;;32.90;13.90;;;;;;;3.58;100.00;101589.13;5184487;28;20479;-73
2023/04/06 05:28:47;;;;;;;32.25;14.05;;;;;;;3.60;100.00;101586.34;5183728;28;20026;-74
2023/04/06 05:31:17;;;;;;;31.40;14.35;;;;;;;3.63;100.00;101588.81;5184087;28;20068;-74
2023/04/06 05:33:48;;;;;;;31.67;13.50;;;;;;;3.68;100.00;101596.47;5184008;28;20590;-74
2023/04/06 05:36:18;;;;;;;31.20;13.63;;;;;;;3.72;100.00;101598.81;5184235;28;20051;-74
2023/04/06 05:38:50;;;;;;;32.47;14.10;;;;;;;3.75;100.00;101597.75;5183666;28;20026;-74
2023/04/06 05:41:20;;;;;;;33.40;14.98;;;;;;;3.78;100.00;101598.41;5182902;28;20414;-74
2023/04/06 05:43:51;;;;;;;34.38;14.55;;;;;;;3.82;100.00;101594.59;5183338;28;20060;-74
2023/04/06 05:46:21;;;;;;;34.38;13.52;;;;;;;3.85;100.00;101583.75;5182552;28;20475;-74
2023/04/06 05:48:52;;;;;;;33.85;13.82;;;;;;;3.92;100.00;101584.19;5182608;28;20028;-74
2023/04/06 05:51:22;;;;;;;27.25;12.95;;;;;;;4.00;100.00;101586.31;5183754;28;20021;-74
2023/04/06 05:53:53;;;;;;;32.10;13.25;;;;;;;4.08;100.00;101583.97;5183969;28;20014;-74
2023/04/06 05:56:25;;;;;;;28.60;13.32;;;;;;;4.13;100.00;101593.31;5181940;28;20034;-74
2023/04/06 05:58:55;;;;;;;29.23;13.07;;;;;;;4.13;100.00;101588.00;5183935;28;20060;-74
2023/04/06 06:01:25;;;;;;;28.98;12.40;;;;;;;4.16;100.00;101590.44;5183378;28;20105;-74
2023/04/06 06:03:56;;;;;;;30.00;12.25;;;;;;;4.22;100.00;101589.19;5183828;28;20032;-74
2023/04/06 06:06:27;;;;;;;34.25;14.88;;;;;;;4.29;100.00;101592.25;5183485;28;20088;-74
2023/04/06 06:09:00;;;;;;;37.20;13.77;;;;;;;4.43;100.00;101594.78;5183341;28;20030;-74
2023/04/06 06:11:31;;;;;;;31.38;13.70;;;;;;;4.60;100.00;101585.63;5183221;28;20129;-74
2023/04/06 06:14:01;;;;;;;33.15;13.32;;;;;;;4.76;100.00;101590.66;5182270;28;20029;-74
2023/04/06 06:16:32;;;;;;;29.75;12.48;;;;;;;4.88;100.00;101588.00;5183446;28;20022;-74
2023/04/06 06:19:04;;;;;;;31.02;13.73;;;;;;;5.00;100.00;101588.91;5175502;28;20025;-74
2023/04/06 06:21:35;;;;;;;35.00;13.90;;;;;;;5.13;100.00;101583.53;5178220;28;20029;-74
2023/04/06 06:24:06;;;;;;;34.30;13.35;;;;;;;5.25;100.00;101581.78;5181994;28;20076;-74
2023/04/06 06:26:39;;;;;;;35.80;14.68;;;;;;;5.39;100.00;101576.28;5181954;28;20414;-74
2023/04/06 06:29:09;;;;;;;32.97;13.52;;;;;;;5.52;100.00;101585.00;5181748;28;20033;-74
2023/04/06 06:31:40;;;;;;;33.67;14.73;;;;;;;5.62;100.00;101588.72;5182045;28;20029;-74
2023/04/06 06:34:12;;;;;;;40.53;15.93;;;;;;;5.76;100.00;101584.97;5184904;28;20560;-74
2023/04/06 06:36:43;;;;;;;40.40;16.95;;;;;;;5.85;100.00;101589.59;5191353;28;20021;-74
2023/04/06 06:39:13;;;;;;;40.90;15.63;;;;;;;5.96;100.00;101576.34;5187859;28;20024;-74
2023/04/06 06:41:44;;;;;;;36.08;15.98;;;;;;;6.04;100.00;101582.91;5196811;28;20071;-74
2023/04/06 06:44:16;;;;;;;32.42;15.52;;;;;;;6.09;100.00;101586.91;5181168;28;20033;-74
2023/04/06 06:46:47;;;;;;;34.67;16.73;;;;;;;6.14;100.00;101590.06;5182764;28;20021;-74
2023/04/06 06:49:18;;;;;;;35.25;16.05;;;;;;;6.20;100.00;101586.06;5180643;28;20033;-74
2023/04/06 06:51:48;;;;;;;41.72;17.23;;;;;;;6.20;100.00;101589.56;5186142;28;20029;-74
2023/04/06 06:54:19;;;;;;;41.55;15.60;;;;;;;6.25;100.00;101586.56;5197765;28;20017;-74
2023/04/06 06:56:50;;;;;;;36.30;16.30;;;;;;;6.30;100.00;101587.03;5181041;28;20021;-75
2023/04/06 06:59:20;;;;;;;36.20;14.73;;;;;;;6.34;100.00;101583.16;5179099;28;20101;-74
2023/04/06 07:01:51;;;;;;;36.00;16.35;;;;;;;6.36;100.00;101583.03;5185193;28;20021;-74
2023/04/06 07:04:21;;;;;;;37.45;16.52;;;;;;;6.39;100.00;101586.31;5187631;28;20033;-75
2023/04/06 07:06:52;;;;;;;34.17;14.02;;;;;;;6.45;100.00;101584.97;5184442;28;20018;-74
2023/04/06 07:09:23;;;;;;;29.77;13.85;;;;;;;6.49;100.00;101587.28;5193506;28;20474;-74
2023/04/06 07:11:53;;;;;;;32.72;14.93;;;;;;;6.52;100.00;101580.00;5180530;28;20136;-74
2023/04/06 07:14:24;;;;;;;29.42;14.15;;;;;;;6.56;100.00;101581.47;5179076;28;20056;-74
2023/04/06 07:16:54;;;;;;;34.38;14.23;;;;;;;6.65;100.00;101583.41;5180143;28;20026;-75
2023/04/06 07:19:25;;;;;;;34.33;15.45;;;;;;;6.71;100.00;101585.56;5180076;28;20030;-74
2023/04/06 07:21:56;;;;;;;37.17;14.95;;;;;;;6.79;100.00;101582.28;5179873;28;20017;-74
2023/04/06 07:24:26;;;;;;;32.60;13.85;;;;;;;6.75;100.00;101581.69;5181424;28;20502;-74
2023/04/06 07:27:00;;;;;;;36.42;15.35;;;;;;;6.80;100.00;101579.50;5183786;28;20036;-74
2023/04/06 07:29:30;;;;;;;33.08;15.07;;;;;;;6.81;100.00;101589.19;5182727;28;20017;-74
2023/04/06 07:32:01;;;;;;;39.83;16.10;;;;;;;6.71;100.00;101588.22;5186068;28;20036;-74
2023/04/06 07:34:32;;;;;;;38.20;15.77;;;;;;;6.68;100.00;101585.81;5193934;28;20033;-74
2023/04/06 07:37:02;;;;;;;32.28;16.23;;;;;;;6.61;100.00;101581.94;5183712;28;20028;-74
2023/04/06 07:39:34;;;;;;;36.50;15.52;;;;;;;6.55;100.00;101587.78;5185420;28;20518;-74
2023/04/06 07:42:05;;;;;;;33.78;14.45;;;;;;;6.53;100.00;101595.06;5186753;28;20051;-75
2023/04/06 07:44:35;;;;;;;37.72;16.02;;;;;;;6.52;100.00;101588.00;5183715;28;20069;-75
2023/04/06 07:47:05;;;;;;;38.17;17.02;;;;;;;6.56;100.00;101586.78;5183142;28;20036;-75
2023/04/06 07:49:36;;;;;;;39.22;16.13;;;;;;;6.59;100.00;101592.72;5183941;28;20079;-74
2023/04/06 07:52:07;;;;;;;34.58;15.75;;;;;;;6.66;100.00;101588.59;5184537;28;20437;-75
2023/04/06 07:54:37;;;;;;;39.90;16.92;;;;;;;6.68;100.00;101594.66;5185085;28;20030;-75
2023/04/06 07:57:08;;;;;;;38.00;17.38;;;;;;;6.70;100.00;101595.38;5184203;28;20022;-75
2023/04/06 07:59:38;;;;;;;34.58;16.55;;;;;;;6.67;100.00;101581.44;5184613;28;20028;-75
2023/04/06 08:02:09;;;;;;;40.50;17.38;;;;;;;6.77;100.00;101600.22;5185392;28;20037;-76
2023/04/06 08:04:39;;;;;;;42.40;16.92;;;;;;;6.70;100.00;101592.72;5184840;28;20029;-75
2023/04/06 08:07:10;;;;;;;36.80;16.27;;;;;;;6.71;100.00;101586.41;5184711;28;20057;-76
2023/04/06 08:09:41;;;;;;;37.88;17.38;;;;;;;6.75;100.00;101584.34;5184454;28;20087;-76
2023/04/06 08:12:11;;;;;;;39.00;17.35;;;;;;;6.59;100.00;101587.41;5183856;28;20096;-76
2023/04/06 08:14:42;;;;;;;45.45;17.13;;;;;;;6.65;100.00;101588.72;5184928;28;20026;-76
2023/04/06 08:17:12;;;;;;;43.92;17.60;;;;;;;6.71;100.00;101591.75;5184764;28;20022;-76
2023/04/06 08:19:44;;;;;;;48.47;17.23;;;;;;;6.73;100.00;101586.31;5184757;28;20557;-75
2023/04/06 08:22:14;;;;;;;43.20;18.13;;;;;;;6.80;100.00;101587.50;5184230;28;20037;-76
2023/04/06 08:24:45;;;;;;;39.92;17.38;;;;;;;6.88;100.00;101589.56;5183736;28;20025;-76
2023/04/06 08:27:15;;;;;;;39.47;18.08;;;;;;;6.95;100.00;101596.91;5184451;28;20037;-76
2023/04/06 08:29:47;;;;;;;39.10;16.95;;;;;;;7.06;100.00;101589.88;5184719;28;20022;-76
2023/04/06 08:32:18;;;;;;;38.72;16.90;;;;;;;7.13;100.00;101597.25;5184654;28;20080;-76
2023/04/06 08:34:48;;;;;;;35.83;15.63;;;;;;;7.14;100.00;101593.59;5184344;28;20426;-76
2023/04/06 08:37:18;;;;;;;33.83;14.75;;;;;;;7.10;100.00;101596.66;5183712;28;20036;-76
2023/04/06 08:39:49;;;;;;;30.42;13.73;;;;;;;7.11;100.00;101598.34;5183675;28;20018;-73
2023/04/06 08:42:21;;;;;;;33.53;14.55;;;;;;;7.15;100.00;101599.78;5184324;28;20033;-75
2023/04/06 08:44:53;;;;;;;32.85;13.43;;;;;;;7.05;100.00;101593.50;5184583;28;20037;-74
2023/04/06 08:47:24;;;;;;;35.65;14.27;;;;;;;7.08;100.00;101587.91;5183057;28;20022;-73
2023/04/06 08:49:55;;;;;;;30.85;12.18;;;;;;;6.93;100.00;101598.88;5184069;28;20033;-74
2023/04/06 08:52:27;;;;;;;31.30;12.80;;;;;;;7.11;100.00;101593.00;5183428;28;20752;-74
2023/04/06 08:54:58;;;;;;;29.88;13.23;;;;;;;7.09;100.00;101593.13;5184202;28;20053;-73
2023/04/06 08:57:28;;;;;;;25.35;11.52;;;;;;;7.14;100.00;101587.44;5183075;28;20112;-74
2023/04/06 09:00:00;;;;;;;27.05;12.48;;;;;;;7.22;100.00;101587.63;5183536;28;20037;-74
2023/04/06 09:02:32;;;;;;;25.08;11.95;;;;;;;7.20;100.00;101590.44;5216071;28;20030;-74
2023/04/06 09:05:02;;;;;;;25.02;11.10;;;;;;;7.25;100.00;101595.38;5183948;28;20026;-73
2023/04/06 09:07:33;;;;;;;21.92;10.35;;;;;;;7.26;100.00;101592.59;5214801;28;20080;-74
2023/04/06 09:10:06;;;;;;;23.38;11.10;;;;;;;7.21;100.00;101585.94;5182340;28;20045;-74
2023/04/06 09:12:36;;;;;;;30.23;11.70;;;;;;;7.31;100.00;101594.88;5183634;28;20070;-74
2023/04/06 09:15:18;;;;;;;28.38;10.93;;;;;;;7.35;100.00;101590.16;5184134;28;20096;-74
2023/04/06 09:17:49;;;;;;;26.80;11.30;;;;;;;7.39;100.00;101597.78;5183911;28;20061;-74
2023/04/06 09:20:35;;;;;;;25.42;11.20;;;;;;;7.38;100.00;101593.41;5183722;28;20535;-74
2023/04/06 09:23:05;;;;;;;21.83;9.75;;;;;;;7.33;100.00;101595.63;5183596;28;20021;-74
2023/04/06 09:25:36;;;;;;;24.60;11.73;;;;;;;7.42;100.00;101594.81;5183485;28;20030;-75
2023/04/06 09:28:07;;;;;;;24.88;10.50;;;;;;;7.33;100.00;101592.94;5182705;28;20141;-75
2023/04/06 09:30:48;;;;;;;27.20;12.05;;;;;;;7.42;100.00;101592.16;5183645;28;20025;-75
2023/04/06 09:33:39;;;;;;;24.63;11.40;;;;;;;7.51;100.00;101588.72;5182058;28;20112;-74
2023/04/06 09:36:10;;;;;;;27.23;11.27;;;;;;;7.51;100.00;101595.88;5171077;28;20037;-74
2023/04/06 09:38:54;;;;;;;34.05;12.95;;;;;;;7.44;100.00;101587.56;5182764;28;20030;-74
2023/04/06 09:41:28;;;;;;;32.22;14.35;;;;;;;7.46;100.00;101579.41;5182664;28;20033;-74
2023/04/06 09:44:14;;;;;;;31.77;13.55;;;;;;;7.45;100.00;101575.91;5183188;28;20029;-74
2023/04/06 09:46:46;;;;;;;29.83;13.52;;;;;;;7.47;100.00;101586.44;5180562;28;20556;-74
2023/04/06 09:49:18;;;;;;;33.92;14.30;;;;;;;7.48;100.00;101582.78;5183216;28;20018;-74
2023/04/06 09:51:56;;;;;;;31.10;13.32;;;;;;;7.44;100.00;101584.03;5182293;28;20494;-74
2023/04/06 09:54:30;;;;;;;34.60;15.15;;;;;;;7.39;100.00;101579.09;5183073;28;20022;-74
2023/04/06 09:57:38;;;;;;;42.05;15.38;;;;;;;7.34;100.00;101570.63;5181972;28;20034;-74
2023/04/06 10:00:13;;;;;;;29.00;14.02;;;;;;;7.36;100.00;101568.66;5182240;28;20030;-74
2023/04/06 10:02:48;;;;;;;35.22;14.45;;;;;;;7.40;100.00;101571.91;5183117;28;20029;-74
2023/04/06 10:05:27;;;;;;;30.85;12.48;;;;;;;7.32;100.00;101569.88;5182989;28;20018;-75
2023/04/06 10:08:01;;;;;;;37.17;15.63;;;;;;;7.34;100.00;101562.59;5181914;28;20044;-74
2023/04/06 10:10:32;;;;;;;31.80;14.55;;;;;;;7.39;100.00;101565.72;5182373;28;20389;-74
2023/04/06 10:13:04;;;;;;;33.25;15.98;;;;;;;7.38;100.00;101572.06;5175643;28;20032;-74
2023/04/06 10:15:35;;;;;;;36.22;15.30;;;;;;;7.44;100.00;101555.53;5176506;28;20025;-74
2023/04/06 10:18:07;;;;;;;37.97;15.65;;;;;;;7.44;100.00;101566.19;5181917;28;20032;-74
2023/04/06 10:20:53;;;;;;;38.05;16.42;;;;;;;7.49;100.00;101564.00;5182271;28;20052;-75
2023/04/06 10:23:32;;;;;;;32.25;15.18;;;;;;;7.57;100.00;101562.47;5182814;28;20021;-76
2023/04/06 10:26:03;;;;;;;36.08;15.90;;;;;;;7.72;100.00;101558.50;5182174;28;20026;-75
2023/04/06 10:28:36;;;;;;;33.58;15.75;;;;;;;7.78;100.00;101552.66;5181967;28;20568;-76
2023/04/06 10:31:07;;;;;;;34.78;13.60;;;;;;;7.63;100.00;101556.63;5182371;28;20108;-75
2023/04/06 10:33:38;;;;;;;31.30;14.57;;;;;;;7.67;100.00;101556.22;5181835;28;20049;-75
2023/04/06 10:36:12;;;;;;;28.67;14.50;;;;;;;7.67;100.00;101550.03;5182490;28;20478;-75
2023/04/06 10:38:42;;;;;;;33.65;13.77;;;;;;;7.61;100.00;101550.56;5181661;28;20045;-75
2023/04/06 10:41:17;;;;;;;28.52;12.48;;;;;;;7.53;100.00;101551.25;5180912;28;20513;-75
2023/04/06 10:43:55;;;;;;;33.55;14.38;;;;;;;7.68;100.00;101555.28;5180878;28;20112;-75
2023/04/06 10:46:29;;;;;;;28.08;13.27;;;;;;;7.63;100.00;101545.94;5181413;28;20033;-76
2023/04/06 10:49:12;;;;;;;27.40;12.32;;;;;;;7.77;100.00;101543.78;5182091;28;20148;-75
2023/04/06 10:51:43;;;;;;;25.23;11.05;;;;;;;7.64;100.00;101542.31;5180744;28;20068;-75
2023/04/06 10:54:15;;;;;;;23.60;12.27;;;;;;;7.70;100.00;101531.09;5182143;28;20022;-75
2023/04/06 10:56:46;;;;;;;27.42;10.85;;;;;;;7.68;100.00;101546.41;5181047;28;20444;-75
2023/04/06 10:59:32;;;;;;;20.40;10.15;;;;;;;7.55;100.00;101532.41;5180779;28;20105;-74
2023/04/06 11:02:02;;;;;;;24.73;11.43;;;;;;;7.59;100.00;101523.16;5173983;28;20030;-75
2023/04/06 11:04:33;;;;;;;22.20;10.48;;;;;;;7.60;100.00;101531.03;5181738;28;20028;-74
2023/04/06 11:07:03;;;;;;;23.23;11.20;;;;;;;7.61;100.00;101538.06;5180816;28;20050;-75
2023/04/06 11:09:36;;;;;;;23.13;11.18;;;;;;;7.57;100.00;101520.59;5181347;28;20026;-75
2023/04/06 11:12:06;;;;;;;24.77;11.45;;;;;;;7.55;100.00;101522.56;5180533;28;20034;-75
2023/04/06 11:14:38;;;;;;;26.40;11.55;;;;;;;7.48;100.00;101532.06;5180409;28;20025;-75
2023/04/06 11:17:09;;;;;;;27.77;11.85;;;;;;;7.44;100.00;101525.31;5180564;28;20081;-76
2023/04/06 11:19:39;;;;;;;23.67;11.98;;;;;;;7.53;100.00;101511.19;5180432;28;20060;-75
2023/04/06 11:22:10;;;;;;;24.67;12.35;;;;;;;7.53;100.00;101524.53;5181047;28;20517;-75
2023/04/06 11:24:40;;;;;;;27.98;13.38;;;;;;;7.57;100.00;101512.59;5181622;28;20479;-75
2023/04/06 11:27:12;;;;;;;29.40;12.98;;;;;;;7.59;100.00;101517.81;5180513;28;20726;-76
2023/04/06 11:29:45;;;;;;;23.38;12.35;;;;;;;7.51;100.00;101511.28;5180691;28;20714;-75